createdAt,value
2022-09-24T00:01:57.713Z,9.99
2022-09-24T00:04:04.981Z,9.98
2022-09-24T00:06:07.808Z,9.90
2022-09-24T00:08:09.784Z,9.87
2022-09-24T00:10:11.666Z,9.79
2022-09-24T00:12:13.416Z,9.84
2022-09-24T00:14:15.806Z,9.90
2022-09-24T00:16:18.889Z,9.73
2022-09-24T00:18:21.621Z,9.49
2022-09-24T00:20:23.189Z,9.47
2022-09-24T00:22:24.913Z,9.48
2022-09-24T00:24:44.827Z,9.55
2022-09-24T00:26:52.526Z,9.60
2022-09-24T00:28:54.225Z,9.64
2022-09-24T00:30:58.415Z,9.62
2022-09-24T00:33:00.013Z,9.55
2022-09-24T00:35:01.697Z,9.42
2022-09-24T00:37:03.533Z,9.38
2022-09-24T00:39:05.871Z,9.35
2022-09-24T00:41:07.645Z,9.28
2022-09-24T00:43:27.581Z,9.33
2022-09-24T00:45:30.366Z,9.35
2022-09-24T00:47:32.016Z,9.34
2022-09-24T00:49:33.645Z,9.38
2022-09-24T00:51:35.249Z,9.36
2022-09-24T00:53:37.123Z,9.41
2022-09-24T00:55:40.178Z,9.42
2022-09-24T00:57:42.331Z,9.38
2022-09-24T00:59:44.975Z,9.40
2022-09-24T01:01:47.665Z,9.47
2022-09-24T01:03:50.347Z,9.47
2022-09-24T01:05:52.070Z,9.53
2022-09-24T01:07:54.285Z,9.55
2022-09-24T01:09:56.184Z,9.56
2022-09-24T01:12:14.641Z,9.57
2022-09-24T01:14:40.041Z,9.57
2022-09-24T01:16:58.514Z,9.56
2022-09-24T01:19:25.381Z,9.59
2022-09-24T01:21:32.584Z,9.60
2022-09-24T01:23:37.099Z,9.60
2022-09-24T01:26:07.652Z,9.64
2022-09-24T01:28:33.999Z,9.68
2022-09-24T01:30:38.319Z,9.28
2022-09-24T01:32:49.639Z,9.18
2022-09-24T01:34:56.146Z,9.26
2022-09-24T01:36:58.783Z,9.26
2022-09-24T01:39:01.174Z,9.32
2022-09-24T01:41:03.865Z,9.40
2022-09-24T01:43:06.200Z,9.41
2022-09-24T01:45:08.526Z,9.40
2022-09-24T01:47:13.155Z,9.37
2022-09-24T01:49:14.762Z,9.36
2022-09-24T01:51:23.911Z,9.18
2022-09-24T01:53:40.674Z,8.74
2022-09-24T01:55:49.776Z,8.39
2022-09-24T01:58:04.911Z,8.30
2022-09-24T02:00:12.488Z,8.40
2022-09-24T02:02:19.379Z,8.57
2022-09-24T02:04:21.664Z,8.48
2022-09-24T02:06:27.926Z,8.06
2022-09-24T02:08:33.362Z,7.72
2022-09-24T02:10:40.584Z,7.59
2022-09-24T02:12:44.360Z,7.47
2022-09-24T02:15:01.652Z,7.44
2022-09-24T02:17:04.568Z,7.63
2022-09-24T02:19:09.751Z,7.88
2022-09-24T02:21:13.760Z,8.01
2022-09-24T02:23:17.815Z,8.07
2022-09-24T02:25:25.855Z,8.21
2022-09-24T02:27:31.045Z,8.35
2022-09-24T02:29:32.662Z,8.47
2022-09-24T02:31:38.150Z,8.57
2022-09-24T02:34:01.586Z,8.55
2022-09-24T02:36:03.497Z,8.50
2022-09-24T02:38:06.386Z,8.38
2022-09-24T02:40:11.340Z,8.13
2022-09-24T02:42:14.800Z,7.83
2022-09-24T02:44:16.995Z,7.84
2022-09-24T02:46:19.147Z,7.94
2022-09-24T02:48:20.827Z,8.04
2022-09-24T02:50:22.789Z,8.15
2022-09-24T02:52:24.397Z,8.28
2022-09-24T02:54:26.018Z,8.39
2022-09-24T02:56:28.783Z,8.49
2022-09-24T02:58:31.073Z,8.50
2022-09-24T03:00:32.712Z,8.59
2022-09-24T03:02:34.462Z,8.61
2022-09-24T03:04:36.189Z,8.42
2022-09-24T03:06:37.870Z,8.35
2022-09-24T03:08:42.447Z,8.31
2022-09-24T03:10:44.263Z,8.23
2022-09-24T03:12:45.874Z,8.31
2022-09-24T03:14:47.790Z,8.02
2022-09-24T03:16:49.450Z,7.83
2022-09-24T03:18:51.081Z,7.57
2022-09-24T03:21:18.963Z,7.65
2022-09-24T03:23:20.588Z,7.44
2022-09-24T03:25:22.253Z,7.35
2022-09-24T03:27:23.845Z,7.11
2022-09-24T03:29:44.130Z,7.09
2022-09-24T03:31:45.867Z,6.72
2022-09-24T03:33:49.314Z,6.60
2022-09-24T03:35:56.049Z,6.65
2022-09-24T03:37:57.646Z,6.84
2022-09-24T03:39:59.376Z,6.77
2022-09-24T03:42:01.097Z,6.93
2022-09-24T03:44:02.777Z,7.10
2022-09-24T03:46:08.388Z,7.28
2022-09-24T03:48:10.020Z,7.41
2022-09-24T03:50:11.763Z,7.51
2022-09-24T03:52:13.378Z,7.63
2022-09-24T03:54:15.092Z,7.70
2022-09-24T03:56:16.801Z,7.78
2022-09-24T03:58:18.403Z,7.85
2022-09-24T04:00:20.023Z,7.88
2022-09-24T04:02:21.832Z,7.91
2022-09-24T04:04:23.731Z,7.94
2022-09-24T04:06:27.085Z,7.95
2022-09-24T04:08:28.670Z,8.00
2022-09-24T04:10:30.357Z,8.08
2022-09-24T04:12:32.005Z,8.07
2022-09-24T04:14:33.573Z,8.09
2022-09-24T04:16:36.503Z,8.08
2022-09-24T04:18:39.698Z,7.87
2022-09-24T04:20:42.006Z,7.29
2022-09-24T04:22:43.640Z,7.13
2022-09-24T04:24:45.330Z,7.26
2022-09-24T04:26:47.010Z,7.44
2022-09-24T04:28:50.552Z,7.63
2022-09-24T04:30:52.223Z,7.78
2022-09-24T04:32:53.973Z,7.86
2022-09-24T04:34:55.783Z,7.99
2022-09-24T04:36:57.397Z,8.07
2022-09-24T04:38:59.270Z,8.16
2022-09-24T04:41:10.002Z,8.27
2022-09-24T04:43:11.562Z,8.36
2022-09-24T04:45:16.482Z,8.39
2022-09-24T04:47:18.149Z,8.42
2022-09-24T04:49:19.746Z,8.45
2022-09-24T04:51:22.076Z,8.44
2022-09-24T04:53:24.398Z,8.45
2022-09-24T04:55:27.407Z,8.45
2022-09-24T04:57:29.360Z,8.51
2022-09-24T04:59:31.062Z,8.50
2022-09-24T05:01:32.647Z,8.58
2022-09-24T05:03:34.255Z,8.67
2022-09-24T05:05:36.799Z,8.72
2022-09-24T05:07:38.498Z,8.77
2022-09-24T05:09:40.152Z,8.80
2022-09-24T05:11:41.848Z,8.87
2022-09-24T05:13:43.401Z,8.92
2022-09-24T05:15:45.008Z,8.99
2022-09-24T05:17:47.051Z,9.07
2022-09-24T05:19:48.685Z,9.15
2022-09-24T05:21:50.417Z,9.27
2022-09-24T05:23:52.246Z,9.26
2022-09-24T05:26:12.789Z,9.33
2022-09-24T05:28:14.366Z,9.37
2022-09-24T05:30:17.065Z,9.38
2022-09-24T05:32:20.029Z,9.48
2022-09-24T05:34:21.718Z,9.58
2022-09-24T05:36:23.377Z,9.48
2022-09-24T05:38:25.193Z,9.42
2022-09-24T05:40:45.358Z,9.40
2022-09-24T05:42:47.159Z,9.42
2022-09-24T05:44:52.321Z,9.50
2022-09-24T05:46:54.229Z,9.65
2022-09-24T05:48:56.130Z,9.76
2022-09-24T05:50:57.946Z,9.85
2022-09-24T05:52:59.530Z,9.87
2022-09-24T05:55:01.089Z,9.89
2022-09-24T05:57:02.686Z,9.94
2022-09-24T05:59:04.884Z,9.96
2022-09-24T06:01:06.866Z,9.80
2022-09-24T06:03:13.840Z,9.78
2022-09-24T06:05:15.637Z,9.65
2022-09-24T06:07:17.323Z,9.66
2022-09-24T06:09:19.007Z,9.76
2022-09-24T06:11:22.470Z,9.63
2022-09-24T06:13:24.114Z,9.78
2022-09-24T06:15:27.418Z,9.93
2022-09-24T06:17:29.165Z,9.83
2022-09-24T06:19:30.732Z,9.87
2022-09-24T06:21:32.404Z,9.99
2022-09-24T06:23:35.228Z,10.16
2022-09-24T06:25:36.819Z,10.24
2022-09-24T06:27:38.501Z,10.31
2022-09-24T06:29:40.133Z,10.33
2022-09-24T06:31:41.808Z,10.45
2022-09-24T06:33:43.665Z,10.62
2022-09-24T06:35:45.277Z,10.68
2022-09-24T06:37:49.260Z,10.63
2022-09-24T06:39:50.980Z,10.69
2022-09-24T06:41:53.264Z,10.80
2022-09-24T06:43:55.561Z,10.94
2022-09-24T06:45:58.489Z,11.09
2022-09-24T06:48:01.541Z,11.11
2022-09-24T06:50:03.326Z,11.15
2022-09-24T06:52:05.005Z,11.09
2022-09-24T06:54:06.689Z,10.90
2022-09-24T06:56:08.357Z,10.59
2022-09-24T06:58:12.692Z,10.52
2022-09-24T07:00:15.305Z,10.65
2022-09-24T07:02:16.986Z,10.89
2022-09-24T07:04:18.735Z,11.13
2022-09-24T07:06:20.509Z,10.73
2022-09-24T07:08:22.240Z,10.58
2022-09-24T07:10:25.243Z,10.71
2022-09-24T07:12:27.166Z,10.99
2022-09-24T07:14:28.792Z,11.21
2022-09-24T07:16:30.464Z,11.16
2022-09-24T07:18:32.194Z,11.11
2022-09-24T07:20:36.715Z,11.07
2022-09-24T07:22:40.253Z,11.07
2022-09-24T07:24:41.909Z,11.22
2022-09-24T07:26:43.502Z,11.43
2022-09-24T07:28:45.195Z,11.65
2022-09-24T07:30:46.797Z,11.86
2022-09-24T07:32:50.634Z,11.99
2022-09-24T07:34:53.277Z,12.15
2022-09-24T07:36:56.116Z,12.27
2022-09-24T07:38:58.494Z,12.40
2022-09-24T07:41:00.241Z,12.40
2022-09-24T07:43:01.935Z,12.09
2022-09-24T07:45:03.785Z,12.08
2022-09-24T07:47:06.258Z,11.95
2022-09-24T07:49:07.937Z,11.62
2022-09-24T07:51:10.313Z,11.41
2022-09-24T07:53:12.797Z,11.38
2022-09-24T07:55:14.377Z,11.63
2022-09-24T07:57:15.949Z,11.63
2022-09-24T07:59:19.903Z,11.90
2022-09-24T08:01:21.573Z,12.24
2022-09-24T08:03:23.244Z,12.38
2022-09-24T08:05:25.675Z,12.55
2022-09-24T08:07:27.280Z,12.77
2022-09-24T08:09:28.849Z,12.98
2022-09-24T08:11:31.019Z,12.88
2022-09-24T08:13:34.138Z,12.80
2022-09-24T08:15:35.767Z,12.48
2022-09-24T08:17:37.371Z,12.45
2022-09-24T08:19:40.291Z,12.61
2022-09-24T08:21:41.890Z,12.92
2022-09-24T08:23:43.908Z,13.22
2022-09-24T08:25:45.841Z,13.24
2022-09-24T08:27:47.407Z,13.43
2022-09-24T08:29:48.965Z,13.48
2022-09-24T08:31:50.673Z,13.35
2022-09-24T08:33:52.219Z,13.03
2022-09-24T08:35:53.790Z,13.09
2022-09-24T08:37:55.474Z,13.34
2022-09-24T08:39:57.539Z,13.43
2022-09-24T08:42:03.286Z,13.76
2022-09-24T08:44:10.264Z,14.09
2022-09-24T08:46:59.053Z,13.91
2022-09-24T08:49:01.729Z,14.05
2022-09-24T08:51:07.649Z,14.16
2022-09-24T08:53:24.687Z,14.42
2022-09-24T08:55:38.667Z,14.67
2022-09-24T08:58:06.910Z,14.86
2022-09-24T09:00:14.546Z,14.92
2022-09-24T09:02:28.595Z,14.64
2022-09-24T09:04:39.276Z,14.62
2022-09-24T09:06:46.937Z,14.73
2022-09-24T09:09:06.787Z,15.02
2022-09-24T09:11:12.325Z,14.85
2022-09-24T09:13:27.755Z,14.79
2022-09-24T09:15:32.760Z,15.03
2022-09-24T09:18:05.355Z,15.27
2022-09-24T09:20:11.886Z,15.48
2022-09-24T09:22:15.324Z,15.54
2022-09-24T09:24:19.369Z,15.82
2022-09-24T09:26:21.465Z,16.06
2022-09-24T09:28:23.214Z,15.90
2022-09-24T09:30:25.018Z,15.67
2022-09-24T09:32:38.544Z,15.59
2022-09-24T09:35:00.332Z,15.44
2022-09-24T09:37:01.920Z,15.54
2022-09-24T09:39:41.610Z,15.40
2022-09-24T09:42:23.202Z,15.62
2022-09-24T09:44:27.365Z,16.00
2022-09-24T09:46:34.645Z,16.34
2022-09-24T09:48:45.298Z,16.69
2022-09-24T09:50:49.283Z,16.97
2022-09-24T09:52:50.881Z,17.18
2022-09-24T09:54:52.640Z,17.27
2022-09-24T09:56:54.336Z,17.36
2022-09-24T09:59:29.594Z,17.50
2022-09-24T10:01:33.251Z,17.60
2022-09-24T10:03:49.197Z,17.79
2022-09-24T10:05:59.633Z,17.93
2022-09-24T10:08:01.390Z,18.01
2022-09-24T10:10:24.599Z,17.96
2022-09-24T10:12:26.767Z,17.86
2022-09-24T10:14:28.396Z,17.83
2022-09-24T10:16:30.483Z,17.90
2022-09-24T10:18:38.469Z,18.00
2022-09-24T10:20:40.477Z,17.98
2022-09-24T10:22:48.945Z,17.69
2022-09-24T10:24:51.719Z,17.88
2022-09-24T10:26:54.079Z,18.05
2022-09-24T10:29:14.319Z,18.08
2022-09-24T10:31:27.096Z,18.23
2022-09-24T10:33:39.785Z,17.98
2022-09-24T10:35:41.573Z,17.73
2022-09-24T10:37:51.112Z,17.80
2022-09-24T10:40:12.358Z,17.87
2022-09-24T10:42:25.134Z,18.20
2022-09-24T10:44:34.470Z,18.23
2022-09-24T10:46:56.345Z,18.14
2022-09-24T10:49:24.441Z,18.11
2022-09-24T10:51:39.880Z,18.21
2022-09-24T10:54:02.618Z,17.98
2022-09-24T10:56:16.549Z,18.23
2022-09-24T10:58:40.270Z,18.51
2022-09-24T11:01:11.030Z,18.41
2022-09-24T11:03:34.477Z,18.56
2022-09-24T11:05:46.125Z,18.53
2022-09-24T11:07:56.833Z,18.57
2022-09-24T11:10:04.144Z,18.77
2022-09-24T11:12:36.771Z,18.73
2022-09-24T11:14:49.140Z,18.77
2022-09-24T11:17:06.311Z,18.83
2022-09-24T11:19:26.376Z,18.83
2022-09-24T11:21:27.894Z,18.77
2022-09-24T11:23:41.425Z,18.69
2022-09-24T11:26:01.317Z,18.77
2022-09-24T11:28:20.116Z,18.83
2022-09-24T11:30:32.541Z,19.10
2022-09-24T11:32:48.682Z,19.00
2022-09-24T11:35:19.267Z,19.04
2022-09-24T11:37:39.393Z,19.18
2022-09-24T11:39:44.071Z,19.23
2022-09-24T11:42:16.636Z,19.33
2022-09-24T11:44:21.952Z,19.31
2022-09-24T11:46:47.381Z,19.41
2022-09-24T11:49:00.869Z,19.58
2022-09-24T11:51:05.585Z,19.70
2022-09-24T11:53:28.701Z,19.55
2022-09-24T11:55:44.232Z,19.63
2022-09-24T11:58:09.549Z,19.70
2022-09-24T12:00:17.787Z,19.73
2022-09-24T12:02:34.874Z,19.69
2022-09-24T12:04:53.609Z,19.77
2022-09-24T12:07:00.245Z,19.77
2022-09-24T12:09:23.300Z,19.67
2022-09-24T12:11:41.529Z,19.56
2022-09-24T12:13:47.010Z,19.61
2022-09-24T12:15:57.190Z,19.73
2022-09-24T12:18:06.820Z,19.71
2022-09-24T12:20:21.326Z,19.67
2022-09-24T12:22:23.354Z,19.70
2022-09-24T12:24:37.837Z,19.61
2022-09-24T12:26:40.959Z,19.69
2022-09-24T12:29:19.472Z,19.58
2022-09-24T12:31:46.493Z,19.59
2022-09-24T12:34:10.229Z,19.62
2022-09-24T12:36:23.162Z,19.61
2022-09-24T12:38:36.976Z,19.51
2022-09-24T12:41:06.169Z,19.61
2022-09-24T12:43:25.191Z,19.58
2022-09-24T12:45:27.473Z,19.70
2022-09-24T12:47:33.800Z,19.64
2022-09-24T12:49:38.453Z,19.73
2022-09-24T12:51:40.136Z,19.73
2022-09-24T12:53:43.557Z,19.74
2022-09-24T12:55:46.253Z,19.84
2022-09-24T12:57:55.177Z,19.79
2022-09-24T13:00:02.392Z,19.68
2022-09-24T13:02:17.624Z,19.80
2022-09-24T13:04:20.099Z,20.01
2022-09-24T13:06:23.416Z,20.16
2022-09-24T13:08:27.541Z,20.27
2022-09-24T13:10:29.157Z,20.14
2022-09-24T13:12:33.236Z,20.14
2022-09-24T13:14:35.427Z,20.09
2022-09-24T13:16:39.057Z,20.12
2022-09-24T13:18:40.502Z,20.01
2022-09-24T13:20:49.275Z,20.04
2022-09-24T13:23:00.675Z,20.17
2022-09-24T13:25:08.348Z,20.28
2022-09-24T13:27:24.962Z,20.35
2022-09-24T13:29:26.775Z,20.35
2022-09-24T13:31:28.385Z,20.38
2022-09-24T13:33:32.061Z,20.21
2022-09-24T13:36:03.491Z,20.30
2022-09-24T13:38:21.844Z,20.44
2022-09-24T13:40:27.641Z,20.41
2022-09-24T13:42:38.641Z,20.43
2022-09-24T13:44:47.357Z,20.33
2022-09-24T13:46:59.102Z,20.41
2022-09-24T13:49:11.244Z,20.35
2022-09-24T13:51:15.111Z,20.27
2022-09-24T13:53:25.709Z,20.25
2022-09-24T13:55:33.453Z,20.19
2022-09-24T13:57:43.979Z,20.15
2022-09-24T13:59:45.777Z,20.23
2022-09-24T14:01:47.889Z,20.21
2022-09-24T14:04:04.015Z,20.08
2022-09-24T14:06:12.601Z,19.98
2022-09-24T14:08:16.114Z,19.95
2022-09-24T14:10:17.791Z,19.90
2022-09-24T14:12:22.117Z,19.77
2022-09-24T14:14:26.016Z,19.75
2022-09-24T14:16:27.702Z,19.75
2022-09-24T14:18:29.453Z,19.74
2022-09-24T14:20:34.337Z,19.74
2022-09-24T14:22:39.673Z,19.74
2022-09-24T14:24:46.496Z,19.77
2022-09-24T14:27:09.427Z,19.81
2022-09-24T14:29:20.497Z,19.79
2022-09-24T14:31:22.195Z,19.80
2022-09-24T14:33:26.417Z,19.68
2022-09-24T14:35:31.875Z,19.62
2022-09-24T14:37:37.453Z,19.65
2022-09-24T14:39:42.161Z,19.69
2022-09-24T14:41:44.142Z,19.60
2022-09-24T14:43:47.779Z,19.50
2022-09-24T14:45:49.316Z,19.46
2022-09-24T14:48:30.545Z,19.51
2022-09-24T14:50:38.127Z,19.55
2022-09-24T14:52:40.059Z,19.56
2022-09-24T14:54:41.687Z,19.52
2022-09-24T14:56:43.324Z,19.52
2022-09-24T14:58:45.033Z,19.49
2022-09-24T15:00:48.926Z,19.53
2022-09-24T15:02:57.745Z,19.59
2022-09-24T15:05:06.230Z,19.71
2022-09-24T15:07:18.749Z,19.90
2022-09-24T15:09:25.898Z,20.02
2022-09-24T15:11:30.240Z,19.88
2022-09-24T15:13:33.938Z,19.62
2022-09-24T15:15:36.294Z,19.60
2022-09-24T15:17:37.976Z,19.57
2022-09-24T15:19:43.237Z,19.55
2022-09-24T15:21:46.042Z,19.46
2022-09-24T15:23:47.649Z,19.16
2022-09-24T15:25:49.779Z,19.22
2022-09-24T15:27:54.627Z,19.32
2022-09-24T15:29:59.443Z,19.41
2022-09-24T15:32:01.467Z,19.32
2022-09-24T15:34:03.282Z,19.17
2022-09-24T15:36:04.971Z,19.09
2022-09-24T15:38:13.897Z,19.00
2022-09-24T15:40:23.043Z,19.15
2022-09-24T15:42:26.608Z,19.10
2022-09-24T15:44:33.662Z,19.13
2022-09-24T15:46:35.875Z,19.13
2022-09-24T15:48:37.871Z,19.21
2022-09-24T15:50:40.293Z,19.15
2022-09-24T15:52:46.917Z,19.52
2022-09-24T15:54:48.486Z,19.81
2022-09-24T15:56:52.582Z,19.53
2022-09-24T15:58:55.690Z,19.42
2022-09-24T16:00:57.433Z,19.45
2022-09-24T16:03:00.175Z,19.31
2022-09-24T16:05:04.143Z,19.28
2022-09-24T16:07:05.990Z,19.23
2022-09-24T16:09:07.759Z,19.18
2022-09-24T16:11:09.589Z,19.11
2022-09-24T16:13:12.050Z,19.01
2022-09-24T16:15:15.809Z,18.91
2022-09-24T16:17:17.610Z,18.85
2022-09-24T16:19:19.251Z,18.74
2022-09-24T16:21:21.153Z,18.63
2022-09-24T16:23:22.824Z,18.53
2022-09-24T16:25:24.643Z,18.39
2022-09-24T16:27:26.236Z,18.33
2022-09-24T16:29:28.159Z,18.25
2022-09-24T16:31:29.816Z,18.19
2022-09-24T16:33:31.444Z,18.13
2022-09-24T16:35:33.251Z,18.06
2022-09-24T16:37:34.792Z,17.94
2022-09-24T16:39:36.469Z,17.89
2022-09-24T16:41:38.184Z,17.85
2022-09-24T16:43:39.736Z,17.81
2022-09-24T16:45:41.326Z,17.77
2022-09-24T16:47:43.195Z,17.72
2022-09-24T16:49:44.759Z,17.67
2022-09-24T16:51:46.405Z,17.63
2022-09-24T16:53:49.067Z,17.56
2022-09-24T16:55:50.782Z,17.46
2022-09-24T16:57:52.904Z,17.39
2022-09-24T16:59:54.578Z,17.36
2022-09-24T17:01:56.249Z,17.30
2022-09-24T17:03:59.004Z,17.26
2022-09-24T17:06:01.111Z,17.20
2022-09-24T17:08:02.680Z,17.16
2022-09-24T17:10:13.692Z,17.10
2022-09-24T17:12:15.382Z,17.04
2022-09-24T17:14:18.081Z,16.98
2022-09-24T17:16:21.833Z,16.90
2022-09-24T17:18:26.078Z,16.78
2022-09-24T17:20:27.697Z,16.71
2022-09-24T17:22:29.972Z,16.66
2022-09-24T17:24:31.952Z,16.60
2022-09-24T17:26:34.549Z,16.58
2022-09-24T17:28:37.265Z,16.55
2022-09-24T17:30:38.872Z,16.52
2022-09-24T17:32:40.480Z,16.46
2022-09-24T17:34:45.739Z,16.40
2022-09-24T17:36:47.788Z,16.36
2022-09-24T17:38:49.725Z,16.34
2022-09-24T17:40:58.499Z,16.27
2022-09-24T17:43:00.457Z,16.19
2022-09-24T17:45:02.107Z,16.15
2022-09-24T17:47:03.932Z,16.12
2022-09-24T17:49:05.999Z,16.13
2022-09-24T17:51:17.168Z,16.08
2022-09-24T17:53:18.768Z,16.03
2022-09-24T17:55:20.361Z,16.01
2022-09-24T17:57:25.328Z,15.99
2022-09-24T17:59:27.295Z,15.94
2022-09-24T18:01:33.690Z,15.93
2022-09-24T18:03:35.664Z,15.89
2022-09-24T18:05:37.954Z,15.88
2022-09-24T18:07:39.608Z,15.82
2022-09-24T18:09:41.281Z,15.80
2022-09-24T18:11:47.824Z,15.75
2022-09-24T18:13:57.369Z,15.68
2022-09-24T18:16:04.498Z,15.61
2022-09-24T18:18:06.150Z,15.44
2022-09-24T18:20:08.110Z,15.44
2022-09-24T18:22:11.173Z,15.41
2022-09-24T18:24:13.235Z,15.40
2022-09-24T18:26:17.525Z,15.41
2022-09-24T18:28:19.122Z,15.43
2022-09-24T18:30:20.674Z,15.48
2022-09-24T18:32:24.258Z,15.51
2022-09-24T18:34:25.828Z,15.52
2022-09-24T18:36:27.370Z,15.52
2022-09-24T18:38:31.636Z,15.50
2022-09-24T18:40:33.634Z,15.50
2022-09-24T18:42:35.303Z,15.49
2022-09-24T18:44:37.257Z,15.47
2022-09-24T18:46:39.540Z,15.45
2022-09-24T18:48:42.936Z,15.39
2022-09-24T18:50:45.101Z,15.36
2022-09-24T18:52:46.657Z,15.33
2022-09-24T18:54:48.837Z,15.32
2022-09-24T18:56:51.215Z,15.31
2022-09-24T18:59:04.688Z,15.24
2022-09-24T19:01:09.730Z,15.18
2022-09-24T19:03:11.458Z,15.15
2022-09-24T19:05:13.117Z,15.14
2022-09-24T19:07:14.716Z,15.18
2022-09-24T19:09:17.646Z,15.16
2022-09-24T19:11:19.271Z,15.17
2022-09-24T19:13:25.996Z,15.15
2022-09-24T19:15:28.694Z,15.14
2022-09-24T19:17:30.383Z,15.14
2022-09-24T19:19:32.065Z,15.10
2022-09-24T19:21:33.737Z,15.12
2022-09-24T19:23:39.549Z,15.11
2022-09-24T19:25:41.918Z,15.10
2022-09-24T19:27:44.473Z,15.09
2022-09-24T19:29:46.478Z,15.06
2022-09-24T19:31:48.899Z,15.04
2022-09-24T19:33:53.331Z,14.99
2022-09-24T19:35:58.071Z,14.92
2022-09-24T19:38:00.939Z,14.81
2022-09-24T19:40:02.626Z,14.73
2022-09-24T19:42:04.456Z,14.69
2022-09-24T19:44:09.142Z,14.65
2022-09-24T19:46:17.007Z,14.46
2022-09-24T19:48:18.693Z,14.29
2022-09-24T19:50:20.303Z,14.29
2022-09-24T19:52:21.865Z,14.28
2022-09-24T19:54:23.873Z,14.23
2022-09-24T19:56:25.618Z,14.14
2022-09-24T19:58:27.814Z,14.08
2022-09-24T20:00:29.864Z,14.08
2022-09-24T20:02:31.475Z,14.03
2022-09-24T20:04:34.149Z,14.03
2022-09-24T20:06:37.353Z,14.09
2022-09-24T20:08:39.043Z,14.11
2022-09-24T20:10:41.829Z,14.14
2022-09-24T20:12:46.900Z,14.13
2022-09-24T20:14:48.578Z,14.07
2022-09-24T20:16:50.316Z,14.03
2022-09-24T20:18:56.674Z,13.99
2022-09-24T20:21:05.834Z,13.99
2022-09-24T20:23:08.418Z,13.96
2022-09-24T20:25:11.746Z,13.90
2022-09-24T20:27:31.950Z,13.89
2022-09-24T20:29:34.270Z,13.87
2022-09-24T20:31:37.367Z,13.87
2022-09-24T20:33:40.694Z,13.89
2022-09-24T20:35:42.369Z,13.87
2022-09-24T20:37:44.785Z,13.86
2022-09-24T20:39:46.380Z,13.87
2022-09-24T20:41:49.431Z,13.86
2022-09-24T20:43:52.241Z,13.83
2022-09-24T20:45:54.230Z,13.78
2022-09-24T20:47:55.917Z,13.75
2022-09-24T20:49:57.464Z,13.74
2022-09-24T20:51:59.296Z,13.73
2022-09-24T20:54:01.690Z,13.68
2022-09-24T20:56:04.972Z,13.61
2022-09-24T20:58:07.457Z,13.61
2022-09-24T21:00:13.359Z,13.57
2022-09-24T21:02:15.550Z,13.57
2022-09-24T21:04:36.051Z,13.56
2022-09-24T21:06:37.911Z,13.45
2022-09-24T21:08:44.875Z,13.42
2022-09-24T21:10:46.548Z,13.43
2022-09-24T21:12:50.977Z,13.44
2022-09-24T21:14:52.958Z,13.45
2022-09-24T21:16:55.213Z,13.46
2022-09-24T21:18:57.513Z,13.49
2022-09-24T21:21:03.921Z,13.50
2022-09-24T21:23:05.475Z,13.51
2022-09-24T21:25:07.391Z,13.56
2022-09-24T21:27:09.214Z,13.49
2022-09-24T21:29:12.099Z,13.46
2022-09-24T21:31:18.964Z,13.45
2022-09-24T21:33:20.609Z,13.35
2022-09-24T21:35:22.565Z,13.32
2022-09-24T21:37:25.293Z,13.32
2022-09-24T21:39:27.332Z,13.26
2022-09-24T21:41:31.300Z,13.21
2022-09-24T21:43:34.952Z,13.24
2022-09-24T21:45:37.463Z,13.23
2022-09-24T21:47:39.826Z,13.13
2022-09-24T21:49:41.989Z,12.82
2022-09-24T21:51:43.612Z,12.63
2022-09-24T21:53:45.345Z,12.64
2022-09-24T21:55:50.481Z,12.71
2022-09-24T21:57:52.118Z,12.80
2022-09-24T21:59:59.623Z,12.61
2022-09-24T22:02:02.056Z,12.62
2022-09-24T22:04:05.601Z,12.58
2022-09-24T22:06:07.242Z,12.63
2022-09-24T22:08:13.020Z,12.66
2022-09-24T22:10:14.778Z,12.74
2022-09-24T22:12:16.865Z,12.82
2022-09-24T22:14:18.557Z,12.86
2022-09-24T22:16:20.710Z,12.89
2022-09-24T22:18:22.471Z,12.90
2022-09-24T22:20:24.080Z,12.89
2022-09-24T22:22:25.723Z,12.89
2022-09-24T22:24:27.561Z,12.81
2022-09-24T22:26:32.296Z,12.70
2022-09-24T22:28:34.580Z,12.51
2022-09-24T22:30:36.254Z,12.36
2022-09-24T22:32:37.934Z,12.28
2022-09-24T22:34:58.338Z,12.01
2022-09-24T22:37:00.125Z,11.97
2022-09-24T22:39:02.297Z,12.02
2022-09-24T22:41:05.301Z,12.02
2022-09-24T22:43:06.958Z,12.08
2022-09-24T22:45:09.020Z,12.14
2022-09-24T22:47:10.691Z,12.04
2022-09-24T22:49:12.384Z,11.96
2022-09-24T22:51:14.671Z,12.03
2022-09-24T22:53:16.371Z,12.07
2022-09-24T22:55:18.046Z,12.15
2022-09-24T22:57:19.749Z,12.19
2022-09-24T22:59:21.407Z,12.10
2022-09-24T23:01:31.781Z,12.03
2022-09-24T23:03:34.440Z,12.04
2022-09-24T23:05:36.056Z,12.02
2022-09-24T23:07:37.702Z,12.07
2022-09-24T23:09:39.520Z,12.11
2022-09-24T23:11:41.312Z,12.14
2022-09-24T23:13:44.441Z,12.14
2022-09-24T23:15:46.132Z,12.18
2022-09-24T23:17:47.807Z,12.22
2022-09-24T23:19:49.599Z,12.25
2022-09-24T23:21:51.386Z,12.23
2022-09-24T23:23:57.996Z,12.27
2022-09-24T23:26:16.693Z,12.21
2022-09-24T23:28:18.699Z,11.98
2022-09-24T23:30:22.090Z,12.00
2022-09-24T23:32:23.826Z,11.93
2022-09-24T23:34:25.510Z,11.82
2022-09-24T23:36:30.985Z,11.72
2022-09-24T23:38:33.505Z,11.64
2022-09-24T23:40:35.440Z,11.66
2022-09-24T23:42:37.105Z,11.70
2022-09-24T23:44:38.653Z,11.60
2022-09-24T23:46:40.426Z,11.60
2022-09-24T23:48:42.208Z,11.67
2022-09-24T23:50:46.806Z,11.77
2022-09-24T23:52:48.446Z,11.85
2022-09-24T23:54:50.127Z,11.81
2022-09-24T23:56:51.769Z,11.80
2022-09-24T23:58:55.019Z,11.85
